sensor_id;sensor_type;location;lat;lon;timestamp;P1;durP1;ratioP1;P2;durP2;ratioP2
21822;SDS011;11074;48.596;9.238;2024-01-30T00:01:00;10.68;;;6.97;;
21822;SDS011;11074;48.596;9.238;2024-01-30T00:03:26;12.65;;;6.63;;
21822;SDS011;11074;48.596;9.238;2024-01-30T00:05:51;11.98;;;7.40;;
21822;SDS011;11074;48.596;9.238;2024-01-30T00:08:17;11.23;;;6.72;;
21822;SDS011;11074;48.596;9.238;2024-01-30T00:10:42;14.65;;;7.03;;
21822;SDS011;11074;48.596;9.238;2024-01-30T00:13:07;13.10;;;7.23;;
21822;SDS011;11074;48.596;9.238;2024-01-30T00:15:33;11.93;;;7.13;;
21822;SDS011;11074;48.596;9.238;2024-01-30T00:17:59;11.63;;;7.15;;
21822;SDS011;11074;48.596;9.238;2024-01-30T00:20:24;14.40;;;6.68;;
21822;SDS011;11074;48.596;9.238;2024-01-30T00:22:50;11.52;;;7.35;;
21822;SDS011;11074;48.596;9.238;2024-01-30T00:25:15;10.80;;;6.77;;
21822;SDS011;11074;48.596;9.238;2024-01-30T00:27:40;12.15;;;7.28;;
21822;SDS011;11074;48.596;9.238;2024-01-30T00:30:06;10.27;;;7.00;;
21822;SDS011;11074;48.596;9.238;2024-01-30T00:32:32;11.43;;;6.97;;
21822;SDS011;11074;48.596;9.238;2024-01-30T00:34:57;11.25;;;7.20;;
21822;SDS011;11074;48.596;9.238;2024-01-30T00:37:22;11.32;;;6.65;;
21822;SDS011;11074;48.596;9.238;2024-01-30T00:39:48;10.85;;;6.55;;
21822;SDS011;11074;48.596;9.238;2024-01-30T00:42:13;12.40;;;7.85;;
21822;SDS011;11074;48.596;9.238;2024-01-30T00:44:39;16.27;;;7.10;;
21822;SDS011;11074;48.596;9.238;2024-01-30T00:47:04;18.10;;;8.63;;
21822;SDS011;11074;48.596;9.238;2024-01-30T00:49:30;15.77;;;8.18;;
21822;SDS011;11074;48.596;9.238;2024-01-30T00:51:55;12.63;;;7.78;;
21822;SDS011;11074;48.596;9.238;2024-01-30T00:54:21;12.13;;;7.40;;
21822;SDS011;11074;48.596;9.238;2024-01-30T00:56:46;14.17;;;7.43;;
21822;SDS011;11074;48.596;9.238;2024-01-30T00:59:11;11.70;;;7.30;;
21822;SDS011;11074;48.596;9.238;2024-01-30T01:01:37;11.90;;;6.88;;
21822;SDS011;11074;48.596;9.238;2024-01-30T01:04:02;12.48;;;7.28;;
21822;SDS011;11074;48.596;9.238;2024-01-30T01:06:27;11.23;;;7.18;;
21822;SDS011;11074;48.596;9.238;2024-01-30T01:08:53;12.20;;;6.72;;
21822;SDS011;11074;48.596;9.238;2024-01-30T01:11:18;15.43;;;7.75;;
21822;SDS011;11074;48.596;9.238;2024-01-30T01:13:43;13.15;;;6.97;;
21822;SDS011;11074;48.596;9.238;2024-01-30T01:16:09;11.43;;;7.10;;
21822;SDS011;11074;48.596;9.238;2024-01-30T01:18:34;15.50;;;7.77;;
21822;SDS011;11074;48.596;9.238;2024-01-30T01:20:59;15.93;;;8.87;;
21822;SDS011;11074;48.596;9.238;2024-01-30T01:23:25;17.02;;;9.48;;
21822;SDS011;11074;48.596;9.238;2024-01-30T01:25:51;15.32;;;8.00;;
21822;SDS011;11074;48.596;9.238;2024-01-30T01:28:16;17.70;;;9.32;;
21822;SDS011;11074;48.596;9.238;2024-01-30T01:30:41;13.32;;;7.80;;
21822;SDS011;11074;48.596;9.238;2024-01-30T01:33:06;15.30;;;7.97;;
21822;SDS011;11074;48.596;9.238;2024-01-30T01:35:32;12.53;;;7.50;;
21822;SDS011;11074;48.596;9.238;2024-01-30T01:37:57;13.97;;;7.20;;
21822;SDS011;11074;48.596;9.238;2024-01-30T01:40:25;12.48;;;7.72;;
21822;SDS011;11074;48.596;9.238;2024-01-30T01:42:52;14.18;;;7.82;;
21822;SDS011;11074;48.596;9.238;2024-01-30T01:45:18;10.77;;;7.97;;
21822;SDS011;11074;48.596;9.238;2024-01-30T01:47:44;12.77;;;7.40;;
21822;SDS011;11074;48.596;9.238;2024-01-30T01:50:12;13.90;;;7.75;;
21822;SDS011;11074;48.596;9.238;2024-01-30T01:52:39;14.32;;;7.90;;
21822;SDS011;11074;48.596;9.238;2024-01-30T01:55:06;13.90;;;8.20;;
21822;SDS011;11074;48.596;9.238;2024-01-30T01:57:33;14.65;;;8.82;;
21822;SDS011;11074;48.596;9.238;2024-01-30T01:59:59;15.82;;;8.60;;
21822;SDS011;11074;48.596;9.238;2024-01-30T02:02:26;13.65;;;8.73;;
21822;SDS011;11074;48.596;9.238;2024-01-30T02:04:55;15.13;;;8.38;;
21822;SDS011;11074;48.596;9.238;2024-01-30T02:07:20;12.23;;;7.80;;
21822;SDS011;11074;48.596;9.238;2024-01-30T02:09:45;11.63;;;7.80;;
21822;SDS011;11074;48.596;9.238;2024-01-30T02:12:11;13.93;;;7.90;;
21822;SDS011;11074;48.596;9.238;2024-01-30T02:14:45;11.63;;;7.27;;
21822;SDS011;11074;48.596;9.238;2024-01-30T02:17:11;11.52;;;8.05;;
21822;SDS011;11074;48.596;9.238;2024-01-30T02:19:37;12.35;;;7.68;;
21822;SDS011;11074;48.596;9.238;2024-01-30T02:22:02;14.00;;;7.25;;
21822;SDS011;11074;48.596;9.238;2024-01-30T02:24:28;12.43;;;7.45;;
21822;SDS011;11074;48.596;9.238;2024-01-30T02:26:54;13.15;;;7.68;;
21822;SDS011;11074;48.596;9.238;2024-01-30T02:29:19;12.73;;;7.60;;
21822;SDS011;11074;48.596;9.238;2024-01-30T02:31:44;12.37;;;7.40;;
21822;SDS011;11074;48.596;9.238;2024-01-30T02:34:11;11.95;;;7.35;;
21822;SDS011;11074;48.596;9.238;2024-01-30T02:36:36;11.77;;;7.70;;
21822;SDS011;11074;48.596;9.238;2024-01-30T02:39:01;12.40;;;7.67;;
21822;SDS011;11074;48.596;9.238;2024-01-30T02:41:27;12.93;;;7.38;;
21822;SDS011;11074;48.596;9.238;2024-01-30T02:43:52;11.90;;;7.72;;
21822;SDS011;11074;48.596;9.238;2024-01-30T02:46:17;13.60;;;7.40;;
21822;SDS011;11074;48.596;9.238;2024-01-30T02:48:42;11.83;;;7.07;;
21822;SDS011;11074;48.596;9.238;2024-01-30T02:51:08;13.20;;;7.97;;
21822;SDS011;11074;48.596;9.238;2024-01-30T02:53:33;12.77;;;7.40;;
21822;SDS011;11074;48.596;9.238;2024-01-30T02:55:58;13.33;;;7.90;;
21822;SDS011;11074;48.596;9.238;2024-01-30T02:58:23;9.90;;;7.07;;
21822;SDS011;11074;48.596;9.238;2024-01-30T03:00:49;10.83;;;7.53;;
21822;SDS011;11074;48.596;9.238;2024-01-30T03:03:14;11.50;;;7.23;;
21822;SDS011;11074;48.596;9.238;2024-01-30T03:05:39;11.67;;;6.93;;
21822;SDS011;11074;48.596;9.238;2024-01-30T03:08:04;11.60;;;7.40;;
21822;SDS011;11074;48.596;9.238;2024-01-30T03:10:30;12.30;;;7.32;;
21822;SDS011;11074;48.596;9.238;2024-01-30T03:12:55;11.07;;;6.97;;
21822;SDS011;11074;48.596;9.238;2024-01-30T03:15:20;11.80;;;6.97;;
21822;SDS011;11074;48.596;9.238;2024-01-30T03:17:46;12.47;;;7.17;;
21822;SDS011;11074;48.596;9.238;2024-01-30T03:20:11;11.13;;;7.25;;
21822;SDS011;11074;48.596;9.238;2024-01-30T03:22:36;10.80;;;7.03;;
21822;SDS011;11074;48.596;9.238;2024-01-30T03:25:01;13.10;;;7.97;;
21822;SDS011;11074;48.596;9.238;2024-01-30T03:27:27;10.80;;;7.30;;
21822;SDS011;11074;48.596;9.238;2024-01-30T03:29:52;12.60;;;7.32;;
21822;SDS011;11074;48.596;9.238;2024-01-30T03:32:17;13.20;;;7.40;;
21822;SDS011;11074;48.596;9.238;2024-01-30T03:34:43;10.30;;;6.87;;
21822;SDS011;11074;48.596;9.238;2024-01-30T03:37:08;10.77;;;7.00;;
21822;SDS011;11074;48.596;9.238;2024-01-30T03:39:33;11.47;;;6.77;;
21822;SDS011;11074;48.596;9.238;2024-01-30T03:41:58;11.88;;;7.60;;
21822;SDS011;11074;48.596;9.238;2024-01-30T03:44:24;12.70;;;7.60;;
21822;SDS011;11074;48.596;9.238;2024-01-30T03:46:49;12.75;;;7.35;;
21822;SDS011;11074;48.596;9.238;2024-01-30T03:49:14;11.52;;;7.25;;
21822;SDS011;11074;48.596;9.238;2024-01-30T03:51:40;11.73;;;7.60;;
21822;SDS011;11074;48.596;9.238;2024-01-30T03:54:05;14.55;;;8.07;;
21822;SDS011;11074;48.596;9.238;2024-01-30T03:56:30;13.70;;;7.63;;
21822;SDS011;11074;48.596;9.238;2024-01-30T03:58:56;11.15;;;7.20;;
21822;SDS011;11074;48.596;9.238;2024-01-30T04:01:21;11.65;;;7.13;;
21822;SDS011;11074;48.596;9.238;2024-01-30T04:03:47;12.30;;;7.10;;
21822;SDS011;11074;48.596;9.238;2024-01-30T04:06:12;11.65;;;7.85;;
21822;SDS011;11074;48.596;9.238;2024-01-30T04:08:37;10.82;;;7.45;;
21822;SDS011;11074;48.596;9.238;2024-01-30T04:11:06;12.90;;;7.53;;
21822;SDS011;11074;48.596;9.238;2024-01-30T04:13:31;12.45;;;7.60;;
21822;SDS011;11074;48.596;9.238;2024-01-30T04:15:59;12.75;;;8.38;;
21822;SDS011;11074;48.596;9.238;2024-01-30T04:18:25;10.55;;;7.28;;
21822;SDS011;11074;48.596;9.238;2024-01-30T04:20:50;9.33;;;6.90;;
21822;SDS011;11074;48.596;9.238;2024-01-30T04:23:15;11.05;;;7.25;;
21822;SDS011;11074;48.596;9.238;2024-01-30T04:25:40;13.37;;;7.00;;
21822;SDS011;11074;48.596;9.238;2024-01-30T04:28:06;10.60;;;6.77;;
21822;SDS011;11074;48.596;9.238;2024-01-30T04:30:31;10.70;;;7.18;;
21822;SDS011;11074;48.596;9.238;2024-01-30T04:32:56;10.15;;;7.05;;
21822;SDS011;11074;48.596;9.238;2024-01-30T04:35:22;11.80;;;7.30;;
21822;SDS011;11074;48.596;9.238;2024-01-30T04:37:49;13.57;;;8.05;;
21822;SDS011;11074;48.596;9.238;2024-01-30T04:40:15;10.20;;;6.97;;
21822;SDS011;11074;48.596;9.238;2024-01-30T04:42:40;11.32;;;7.15;;
21822;SDS011;11074;48.596;9.238;2024-01-30T04:45:05;11.73;;;7.15;;
21822;SDS011;11074;48.596;9.238;2024-01-30T04:47:31;11.50;;;7.53;;
21822;SDS011;11074;48.596;9.238;2024-01-30T04:49:56;11.02;;;7.50;;
21822;SDS011;11074;48.596;9.238;2024-01-30T04:52:22;12.93;;;7.40;;
21822;SDS011;11074;48.596;9.238;2024-01-30T04:54:47;12.07;;;7.60;;
21822;SDS011;11074;48.596;9.238;2024-01-30T04:57:12;11.97;;;7.37;;
21822;SDS011;11074;48.596;9.238;2024-01-30T04:59:38;11.90;;;7.40;;
21822;SDS011;11074;48.596;9.238;2024-01-30T05:02:03;12.95;;;7.60;;
21822;SDS011;11074;48.596;9.238;2024-01-30T05:04:28;11.38;;;7.50;;
21822;SDS011;11074;48.596;9.238;2024-01-30T05:06:54;12.00;;;7.20;;
21822;SDS011;11074;48.596;9.238;2024-01-30T05:09:19;12.57;;;7.80;;
21822;SDS011;11074;48.596;9.238;2024-01-30T05:11:44;14.83;;;7.70;;
21822;SDS011;11074;48.596;9.238;2024-01-30T05:14:10;9.95;;;7.22;;
21822;SDS011;11074;48.596;9.238;2024-01-30T05:16:36;12.52;;;7.50;;
21822;SDS011;11074;48.596;9.238;2024-01-30T05:19:02;12.10;;;7.10;;
21822;SDS011;11074;48.596;9.238;2024-01-30T05:21:27;11.60;;;7.50;;
21822;SDS011;11074;48.596;9.238;2024-01-30T05:23:52;11.97;;;7.57;;
21822;SDS011;11074;48.596;9.238;2024-01-30T05:26:18;12.30;;;7.65;;
21822;SDS011;11074;48.596;9.238;2024-01-30T05:28:43;9.53;;;6.77;;
21822;SDS011;11074;48.596;9.238;2024-01-30T05:31:09;12.13;;;7.18;;
21822;SDS011;11074;48.596;9.238;2024-01-30T05:33:38;13.38;;;7.82;;
21822;SDS011;11074;48.596;9.238;2024-01-30T05:36:03;13.07;;;8.00;;
21822;SDS011;11074;48.596;9.238;2024-01-30T05:38:29;10.68;;;7.65;;
21822;SDS011;11074;48.596;9.238;2024-01-30T05:40:55;10.75;;;7.75;;
21822;SDS011;11074;48.596;9.238;2024-01-30T05:43:20;19.10;;;11.03;;
21822;SDS011;11074;48.596;9.238;2024-01-30T05:45:45;14.77;;;8.75;;
21822;SDS011;11074;48.596;9.238;2024-01-30T05:48:11;13.82;;;8.63;;
21822;SDS011;11074;48.596;9.238;2024-01-30T05:50:36;13.38;;;8.23;;
21822;SDS011;11074;48.596;9.238;2024-01-30T05:53:01;16.63;;;7.78;;
21822;SDS011;11074;48.596;9.238;2024-01-30T05:55:27;12.75;;;7.30;;
21822;SDS011;11074;48.596;9.238;2024-01-30T05:57:53;15.50;;;8.48;;
21822;SDS011;11074;48.596;9.238;2024-01-30T06:00:18;12.77;;;7.75;;
21822;SDS011;11074;48.596;9.238;2024-01-30T06:02:45;12.02;;;7.78;;
21822;SDS011;11074;48.596;9.238;2024-01-30T06:05:11;12.65;;;7.88;;
21822;SDS011;11074;48.596;9.238;2024-01-30T06:07:36;13.70;;;7.65;;
21822;SDS011;11074;48.596;9.238;2024-01-30T06:10:01;13.05;;;7.63;;
21822;SDS011;11074;48.596;9.238;2024-01-30T06:12:27;11.25;;;7.50;;
21822;SDS011;11074;48.596;9.238;2024-01-30T06:14:53;14.40;;;8.32;;
21822;SDS011;11074;48.596;9.238;2024-01-30T06:17:21;13.63;;;7.40;;
21822;SDS011;11074;48.596;9.238;2024-01-30T06:19:47;12.07;;;7.53;;
21822;SDS011;11074;48.596;9.238;2024-01-30T06:22:12;12.43;;;7.30;;
21822;SDS011;11074;48.596;9.238;2024-01-30T06:24:38;10.33;;;7.30;;
21822;SDS011;11074;48.596;9.238;2024-01-30T06:27:03;12.45;;;7.55;;
21822;SDS011;11074;48.596;9.238;2024-01-30T06:29:29;15.38;;;7.68;;
21822;SDS011;11074;48.596;9.238;2024-01-30T06:31:54;12.63;;;8.25;;
21822;SDS011;11074;48.596;9.238;2024-01-30T06:34:21;12.25;;;8.18;;
21822;SDS011;11074;48.596;9.238;2024-01-30T06:36:46;11.43;;;7.93;;
21822;SDS011;11074;48.596;9.238;2024-01-30T06:39:11;12.07;;;7.57;;
21822;SDS011;11074;48.596;9.238;2024-01-30T06:41:37;11.20;;;8.10;;
21822;SDS011;11074;48.596;9.238;2024-01-30T06:44:02;12.40;;;7.67;;
21822;SDS011;11074;48.596;9.238;2024-01-30T06:46:29;13.25;;;8.10;;
21822;SDS011;11074;48.596;9.238;2024-01-30T06:48:54;10.85;;;7.20;;
21822;SDS011;11074;48.596;9.238;2024-01-30T06:51:19;14.25;;;7.95;;
21822;SDS011;11074;48.596;9.238;2024-01-30T06:53:45;12.50;;;7.93;;
21822;SDS011;11074;48.596;9.238;2024-01-30T06:56:10;14.75;;;8.05;;
21822;SDS011;11074;48.596;9.238;2024-01-30T06:58:36;15.88;;;8.57;;
21822;SDS011;11074;48.596;9.238;2024-01-30T07:01:01;17.08;;;9.07;;
21822;SDS011;11074;48.596;9.238;2024-01-30T07:03:27;16.48;;;8.43;;
21822;SDS011;11074;48.596;9.238;2024-01-30T07:05:52;14.25;;;8.60;;
21822;SDS011;11074;48.596;9.238;2024-01-30T07:08:17;16.17;;;9.55;;
21822;SDS011;11074;48.596;9.238;2024-01-30T07:10:46;21.02;;;11.55;;
21822;SDS011;11074;48.596;9.238;2024-01-30T07:13:12;18.02;;;10.15;;
21822;SDS011;11074;48.596;9.238;2024-01-30T07:15:38;20.88;;;11.35;;
21822;SDS011;11074;48.596;9.238;2024-01-30T07:18:03;14.55;;;10.05;;
21822;SDS011;11074;48.596;9.238;2024-01-30T07:20:29;19.10;;;9.80;;
21822;SDS011;11074;48.596;9.238;2024-01-30T07:22:57;17.38;;;11.18;;
21822;SDS011;11074;48.596;9.238;2024-01-30T07:25:23;21.60;;;12.95;;
21822;SDS011;11074;48.596;9.238;2024-01-30T07:27:51;21.48;;;12.90;;
21822;SDS011;11074;48.596;9.238;2024-01-30T07:30:19;18.88;;;12.25;;
21822;SDS011;11074;48.596;9.238;2024-01-30T07:32:48;19.70;;;11.68;;
21822;SDS011;11074;48.596;9.238;2024-01-30T07:35:14;15.18;;;10.18;;
21822;SDS011;11074;48.596;9.238;2024-01-30T07:37:39;19.98;;;11.77;;
21822;SDS011;11074;48.596;9.238;2024-01-30T07:40:05;40.33;;;20.10;;
21822;SDS011;11074;48.596;9.238;2024-01-30T07:42:31;20.98;;;11.98;;
21822;SDS011;11074;48.596;9.238;2024-01-30T07:44:57;16.67;;;10.82;;
21822;SDS011;11074;48.596;9.238;2024-01-30T07:47:22;17.92;;;10.80;;
21822;SDS011;11074;48.596;9.238;2024-01-30T07:49:47;14.80;;;9.83;;
21822;SDS011;11074;48.596;9.238;2024-01-30T07:52:13;18.95;;;10.73;;
21822;SDS011;11074;48.596;9.238;2024-01-30T07:54:38;15.73;;;9.48;;
21822;SDS011;11074;48.596;9.238;2024-01-30T07:57:04;15.73;;;8.93;;
21822;SDS011;11074;48.596;9.238;2024-01-30T07:59:30;13.02;;;9.15;;
21822;SDS011;11074;48.596;9.238;2024-01-30T08:01:55;14.93;;;8.88;;
21822;SDS011;11074;48.596;9.238;2024-01-30T08:04:21;14.13;;;8.20;;
21822;SDS011;11074;48.596;9.238;2024-01-30T08:06:46;18.23;;;10.68;;
21822;SDS011;11074;48.596;9.238;2024-01-30T08:09:11;18.40;;;9.80;;
21822;SDS011;11074;48.596;9.238;2024-01-30T08:11:36;15.80;;;8.80;;
21822;SDS011;11074;48.596;9.238;2024-01-30T08:14:02;15.47;;;8.47;;
21822;SDS011;11074;48.596;9.238;2024-01-30T08:16:27;14.60;;;9.20;;
21822;SDS011;11074;48.596;9.238;2024-01-30T08:18:52;15.70;;;8.75;;
21822;SDS011;11074;48.596;9.238;2024-01-30T08:21:18;14.95;;;9.05;;
21822;SDS011;11074;48.596;9.238;2024-01-30T08:23:44;17.48;;;10.10;;
21822;SDS011;11074;48.596;9.238;2024-01-30T08:26:11;17.05;;;10.45;;
21822;SDS011;11074;48.596;9.238;2024-01-30T08:28:36;14.45;;;9.73;;
21822;SDS011;11074;48.596;9.238;2024-01-30T08:31:02;20.00;;;11.02;;
21822;SDS011;11074;48.596;9.238;2024-01-30T08:33:27;15.05;;;9.68;;
21822;SDS011;11074;48.596;9.238;2024-01-30T08:35:53;13.20;;;9.10;;
21822;SDS011;11074;48.596;9.238;2024-01-30T08:38:18;14.50;;;8.90;;
21822;SDS011;11074;48.596;9.238;2024-01-30T08:40:44;13.10;;;9.10;;
21822;SDS011;11074;48.596;9.238;2024-01-30T08:43:12;13.27;;;8.40;;
21822;SDS011;11074;48.596;9.238;2024-01-30T08:45:37;13.48;;;8.88;;
21822;SDS011;11074;48.596;9.238;2024-01-30T08:48:03;13.63;;;8.65;;
21822;SDS011;11074;48.596;9.238;2024-01-30T08:50:28;16.00;;;10.00;;
21822;SDS011;11074;48.596;9.238;2024-01-30T08:52:54;17.58;;;9.57;;
21822;SDS011;11074;48.596;9.238;2024-01-30T08:55:20;15.30;;;9.30;;
21822;SDS011;11074;48.596;9.238;2024-01-30T08:57:45;13.20;;;9.23;;
21822;SDS011;11074;48.596;9.238;2024-01-30T09:00:10;12.77;;;8.98;;
21822;SDS011;11074;48.596;9.238;2024-01-30T09:02:36;14.32;;;9.07;;
21822;SDS011;11074;48.596;9.238;2024-01-30T09:05:02;17.70;;;9.85;;
21822;SDS011;11074;48.596;9.238;2024-01-30T09:07:27;16.00;;;9.68;;
21822;SDS011;11074;48.596;9.238;2024-01-30T09:09:53;14.52;;;9.05;;
21822;SDS011;11074;48.596;9.238;2024-01-30T09:12:18;15.35;;;9.90;;
21822;SDS011;11074;48.596;9.238;2024-01-30T09:14:43;15.32;;;10.38;;
21822;SDS011;11074;48.596;9.238;2024-01-30T09:17:09;17.37;;;10.77;;
21822;SDS011;11074;48.596;9.238;2024-01-30T09:19:34;18.30;;;10.35;;
21822;SDS011;11074;48.596;9.238;2024-01-30T09:21:59;20.30;;;11.50;;
21822;SDS011;11074;48.596;9.238;2024-01-30T09:24:25;22.55;;;15.90;;
21822;SDS011;11074;48.596;9.238;2024-01-30T09:26:51;17.83;;;11.85;;
21822;SDS011;11074;48.596;9.238;2024-01-30T09:29:17;15.90;;;10.25;;
21822;SDS011;11074;48.596;9.238;2024-01-30T09:31:43;16.23;;;10.07;;
21822;SDS011;11074;48.596;9.238;2024-01-30T09:34:10;13.55;;;9.60;;
21822;SDS011;11074;48.596;9.238;2024-01-30T09:36:35;14.07;;;9.60;;
21822;SDS011;11074;48.596;9.238;2024-01-30T09:39:01;14.55;;;10.32;;
21822;SDS011;11074;48.596;9.238;2024-01-30T09:41:29;12.57;;;9.18;;
21822;SDS011;11074;48.596;9.238;2024-01-30T09:43:57;14.43;;;9.68;;
21822;SDS011;11074;48.596;9.238;2024-01-30T09:46:25;13.90;;;9.18;;
21822;SDS011;11074;48.596;9.238;2024-01-30T09:49:00;13.55;;;9.23;;
21822;SDS011;11074;48.596;9.238;2024-01-30T09:51:27;18.70;;;9.55;;
21822;SDS011;11074;48.596;9.238;2024-01-30T09:53:56;14.15;;;8.85;;
21822;SDS011;11074;48.596;9.238;2024-01-30T09:56:22;14.82;;;9.82;;
21822;SDS011;11074;48.596;9.238;2024-01-30T09:58:48;14.23;;;9.43;;
21822;SDS011;11074;48.596;9.238;2024-01-30T10:01:13;17.63;;;9.50;;
21822;SDS011;11074;48.596;9.238;2024-01-30T10:03:50;15.27;;;9.50;;
21822;SDS011;11074;48.596;9.238;2024-01-30T10:06:17;15.02;;;9.10;;
21822;SDS011;11074;48.596;9.238;2024-01-30T10:08:43;13.40;;;9.02;;
21822;SDS011;11074;48.596;9.238;2024-01-30T10:11:09;15.63;;;9.00;;
21822;SDS011;11074;48.596;9.238;2024-01-30T10:13:34;14.65;;;9.80;;
21822;SDS011;11074;48.596;9.238;2024-01-30T10:16:00;14.77;;;10.68;;
21822;SDS011;11074;48.596;9.238;2024-01-30T10:18:28;14.32;;;9.60;;
21822;SDS011;11074;48.596;9.238;2024-01-30T10:20:53;15.68;;;9.95;;
21822;SDS011;11074;48.596;9.238;2024-01-30T10:23:19;14.38;;;10.10;;
21822;SDS011;11074;48.596;9.238;2024-01-30T10:25:45;15.13;;;9.43;;
21822;SDS011;11074;48.596;9.238;2024-01-30T10:28:11;13.45;;;9.63;;
21822;SDS011;11074;48.596;9.238;2024-01-30T10:30:36;15.43;;;9.45;;
21822;SDS011;11074;48.596;9.238;2024-01-30T10:33:01;12.77;;;8.88;;
21822;SDS011;11074;48.596;9.238;2024-01-30T10:35:27;15.70;;;9.35;;
21822;SDS011;11074;48.596;9.238;2024-01-30T10:37:52;18.83;;;13.07;;
21822;SDS011;11074;48.596;9.238;2024-01-30T10:40:21;14.32;;;9.95;;
21822;SDS011;11074;48.596;9.238;2024-01-30T10:42:58;13.57;;;9.60;;
21822;SDS011;11074;48.596;9.238;2024-01-30T10:45:26;14.75;;;9.57;;
21822;SDS011;11074;48.596;9.238;2024-01-30T10:47:54;13.07;;;9.32;;
21822;SDS011;11074;48.596;9.238;2024-01-30T10:50:23;19.60;;;10.20;;
21822;SDS011;11074;48.596;9.238;2024-01-30T10:52:49;17.50;;;10.45;;
21822;SDS011;11074;48.596;9.238;2024-01-30T10:55:15;15.50;;;9.25;;
21822;SDS011;11074;48.596;9.238;2024-01-30T10:57:42;15.63;;;9.70;;
21822;SDS011;11074;48.596;9.238;2024-01-30T11:00:14;15.48;;;9.20;;
21822;SDS011;11074;48.596;9.238;2024-01-30T11:02:44;14.93;;;9.32;;
21822;SDS011;11074;48.596;9.238;2024-01-30T11:05:11;18.08;;;10.13;;
21822;SDS011;11074;48.596;9.238;2024-01-30T11:07:38;14.23;;;9.55;;
21822;SDS011;11074;48.596;9.238;2024-01-30T11:10:04;14.57;;;9.50;;
21822;SDS011;11074;48.596;9.238;2024-01-30T11:12:32;15.82;;;9.43;;
21822;SDS011;11074;48.596;9.238;2024-01-30T11:15:11;22.23;;;11.77;;
21822;SDS011;11074;48.596;9.238;2024-01-30T11:20:27;17.70;;;12.30;;
21822;SDS011;11074;48.596;9.238;2024-01-30T11:22:56;18.33;;;11.25;;
21822;SDS011;11074;48.596;9.238;2024-01-30T11:25:22;16.25;;;9.85;;
21822;SDS011;11074;48.596;9.238;2024-01-30T11:27:52;16.83;;;9.23;;
21822;SDS011;11074;48.596;9.238;2024-01-30T11:33:06;13.88;;;9.38;;
21822;SDS011;11074;48.596;9.238;2024-01-30T11:35:35;18.60;;;10.02;;
21822;SDS011;11074;48.596;9.238;2024-01-30T11:38:02;16.80;;;9.90;;
21822;SDS011;11074;48.596;9.238;2024-01-30T11:40:28;13.90;;;9.65;;
21822;SDS011;11074;48.596;9.238;2024-01-30T11:42:55;17.65;;;10.93;;
21822;SDS011;11074;48.596;9.238;2024-01-30T11:45:21;19.35;;;9.70;;
21822;SDS011;11074;48.596;9.238;2024-01-30T11:47:46;18.70;;;10.30;;
21822;SDS011;11074;48.596;9.238;2024-01-30T11:50:12;21.23;;;10.20;;
21822;SDS011;11074;48.596;9.238;2024-01-30T11:52:37;15.63;;;9.68;;
21822;SDS011;11074;48.596;9.238;2024-01-30T11:55:03;14.60;;;9.65;;
21822;SDS011;11074;48.596;9.238;2024-01-30T11:57:29;14.10;;;9.10;;
21822;SDS011;11074;48.596;9.238;2024-01-30T11:59:54;15.50;;;9.50;;
21822;SDS011;11074;48.596;9.238;2024-01-30T12:02:20;10.27;;;8.10;;
21822;SDS011;11074;48.596;9.238;2024-01-30T12:04:45;14.13;;;8.80;;
21822;SDS011;11074;48.596;9.238;2024-01-30T12:07:11;14.55;;;9.30;;
21822;SDS011;11074;48.596;9.238;2024-01-30T12:09:38;13.38;;;8.90;;
21822;SDS011;11074;48.596;9.238;2024-01-30T12:12:03;14.50;;;9.25;;
21822;SDS011;11074;48.596;9.238;2024-01-30T12:14:30;15.30;;;9.07;;
21822;SDS011;11074;48.596;9.238;2024-01-30T12:16:56;16.25;;;8.68;;
21822;SDS011;11074;48.596;9.238;2024-01-30T12:19:24;15.20;;;8.90;;
21822;SDS011;11074;48.596;9.238;2024-01-30T12:21:56;16.92;;;9.88;;
21822;SDS011;11074;48.596;9.238;2024-01-30T12:24:24;14.63;;;9.60;;
21822;SDS011;11074;48.596;9.238;2024-01-30T12:26:56;12.07;;;8.80;;
21822;SDS011;11074;48.596;9.238;2024-01-30T12:29:22;11.95;;;7.90;;
21822;SDS011;11074;48.596;9.238;2024-01-30T12:31:47;12.98;;;8.48;;
21822;SDS011;11074;48.596;9.238;2024-01-30T12:34:15;16.27;;;8.02;;
21822;SDS011;11074;48.596;9.238;2024-01-30T12:36:42;14.40;;;8.05;;
21822;SDS011;11074;48.596;9.238;2024-01-30T12:39:10;23.85;;;13.25;;
21822;SDS011;11074;48.596;9.238;2024-01-30T12:41:37;15.27;;;9.98;;
21822;SDS011;11074;48.596;9.238;2024-01-30T12:44:02;15.73;;;10.30;;
21822;SDS011;11074;48.596;9.238;2024-01-30T12:46:28;16.73;;;11.35;;
21822;SDS011;11074;48.596;9.238;2024-01-30T12:48:54;16.05;;;9.57;;
21822;SDS011;11074;48.596;9.238;2024-01-30T12:51:19;13.57;;;9.15;;
21822;SDS011;11074;48.596;9.238;2024-01-30T12:53:44;11.67;;;7.97;;
21822;SDS011;11074;48.596;9.238;2024-01-30T12:56:11;15.57;;;8.70;;
21822;SDS011;11074;48.596;9.238;2024-01-30T12:58:40;14.10;;;8.85;;
21822;SDS011;11074;48.596;9.238;2024-01-30T13:01:08;17.05;;;9.38;;
21822;SDS011;11074;48.596;9.238;2024-01-30T13:03:35;15.90;;;8.98;;
21822;SDS011;11074;48.596;9.238;2024-01-30T13:06:01;16.77;;;9.40;;
21822;SDS011;11074;48.596;9.238;2024-01-30T13:08:26;18.10;;;10.05;;
21822;SDS011;11074;48.596;9.238;2024-01-30T13:10:51;20.07;;;11.03;;
21822;SDS011;11074;48.596;9.238;2024-01-30T13:13:17;15.23;;;9.25;;
21822;SDS011;11074;48.596;9.238;2024-01-30T13:15:42;18.83;;;9.45;;
21822;SDS011;11074;48.596;9.238;2024-01-30T13:18:08;15.68;;;9.00;;
21822;SDS011;11074;48.596;9.238;2024-01-30T13:20:33;15.53;;;9.87;;
21822;SDS011;11074;48.596;9.238;2024-01-30T13:22:58;17.15;;;10.10;;
21822;SDS011;11074;48.596;9.238;2024-01-30T13:25:23;15.03;;;8.77;;
21822;SDS011;11074;48.596;9.238;2024-01-30T13:27:49;14.77;;;8.52;;
21822;SDS011;11074;48.596;9.238;2024-01-30T13:30:14;13.48;;;8.68;;
21822;SDS011;11074;48.596;9.238;2024-01-30T13:32:39;17.33;;;9.40;;
21822;SDS011;11074;48.596;9.238;2024-01-30T13:35:07;17.92;;;9.32;;
21822;SDS011;11074;48.596;9.238;2024-01-30T13:37:32;13.05;;;7.63;;
21822;SDS011;11074;48.596;9.238;2024-01-30T13:39:58;14.45;;;8.30;;
21822;SDS011;11074;48.596;9.238;2024-01-30T13:42:23;15.55;;;9.00;;
21822;SDS011;11074;48.596;9.238;2024-01-30T13:44:48;13.60;;;8.55;;
21822;SDS011;11074;48.596;9.238;2024-01-30T13:47:14;12.45;;;8.20;;
21822;SDS011;11074;48.596;9.238;2024-01-30T13:49:39;16.50;;;8.13;;
21822;SDS011;11074;48.596;9.238;2024-01-30T13:52:04;17.10;;;8.70;;
21822;SDS011;11074;48.596;9.238;2024-01-30T13:54:30;14.88;;;8.55;;
21822;SDS011;11074;48.596;9.238;2024-01-30T13:56:55;13.32;;;8.35;;
21822;SDS011;11074;48.596;9.238;2024-01-30T13:59:21;13.98;;;8.80;;
21822;SDS011;11074;48.596;9.238;2024-01-30T14:01:49;18.67;;;9.63;;
21822;SDS011;11074;48.596;9.238;2024-01-30T14:04:15;16.63;;;9.88;;
21822;SDS011;11074;48.596;9.238;2024-01-30T14:06:40;20.10;;;9.73;;
21822;SDS011;11074;48.596;9.238;2024-01-30T14:09:06;18.33;;;9.35;;
21822;SDS011;11074;48.596;9.238;2024-01-30T14:11:31;18.00;;;9.25;;
21822;SDS011;11074;48.596;9.238;2024-01-30T14:13:56;16.65;;;8.75;;
21822;SDS011;11074;48.596;9.238;2024-01-30T14:16:22;17.30;;;9.10;;
21822;SDS011;11074;48.596;9.238;2024-01-30T14:18:49;18.73;;;9.77;;
21822;SDS011;11074;48.596;9.238;2024-01-30T14:21:14;20.38;;;12.48;;
21822;SDS011;11074;48.596;9.238;2024-01-30T14:23:40;18.08;;;11.23;;
21822;SDS011;11074;48.596;9.238;2024-01-30T14:26:05;19.47;;;10.30;;
21822;SDS011;11074;48.596;9.238;2024-01-30T14:28:31;20.17;;;10.63;;
21822;SDS011;11074;48.596;9.238;2024-01-30T14:30:56;20.17;;;10.30;;